createdAt,value
2023-12-08T00:01:19.050Z,-0.97
2023-12-08T00:03:47.619Z,-0.89
2023-12-08T00:06:16.423Z,-1.12
2023-12-08T00:08:45.108Z,-1.08
2023-12-08T00:11:15.325Z,-1.06
2023-12-08T00:13:45.783Z,-0.89
2023-12-08T00:16:14.483Z,-0.73
2023-12-08T00:18:43.195Z,-0.62
2023-12-08T00:21:12.550Z,-0.62
2023-12-08T00:23:41.254Z,-1.11
2023-12-08T00:26:09.848Z,-0.76
2023-12-08T00:28:40.005Z,-0.81
2023-12-08T00:31:08.688Z,-0.86
2023-12-08T00:33:37.381Z,-0.76
2023-12-08T00:36:14.551Z,-0.69
2023-12-08T00:38:43.168Z,-0.68
2023-12-08T00:41:12.021Z,-0.80
2023-12-08T00:43:41.971Z,-0.83
2023-12-08T00:46:11.109Z,-0.86
2023-12-08T00:48:39.830Z,-0.78
2023-12-08T00:51:09.312Z,-0.82
2023-12-08T00:53:37.950Z,-0.70
2023-12-08T00:56:08.166Z,-0.70
2023-12-08T00:58:36.844Z,-0.96
2023-12-08T01:01:07.775Z,-0.79
2023-12-08T01:03:36.724Z,-0.76
2023-12-08T01:06:05.892Z,-0.75
2023-12-08T01:08:34.464Z,-0.68
2023-12-08T01:11:03.040Z,-0.98
2023-12-08T01:13:31.622Z,-1.11
2023-12-08T01:16:00.212Z,-1.09
2023-12-08T01:18:30.435Z,-1.06
2023-12-08T01:20:59.427Z,-1.07
2023-12-08T01:23:28.273Z,-1.13
2023-12-08T01:25:56.823Z,-1.09
2023-12-08T01:28:25.403Z,-1.09
2023-12-08T01:30:53.959Z,-1.23
2023-12-08T01:33:22.724Z,-0.89
2023-12-08T01:36:37.166Z,-1.11
2023-12-08T01:38:41.617Z,-1.11
2023-12-08T01:41:10.195Z,-1.16
2023-12-08T01:43:38.739Z,-0.99
2023-12-08T01:46:07.674Z,-1.16
2023-12-08T01:48:37.042Z,-1.12
2023-12-08T01:51:07.915Z,-1.35
2023-12-08T01:53:36.573Z,-1.21
2023-12-08T01:56:06.710Z,-1.09
2023-12-08T01:58:35.387Z,-1.26
2023-12-08T02:01:06.924Z,-1.20
2023-12-08T02:03:36.227Z,-1.20
2023-12-08T02:06:07.143Z,-1.26
2023-12-08T02:08:35.927Z,-0.98
2023-12-08T02:11:23.256Z,-0.92
2023-12-08T02:14:14.751Z,-0.93
2023-12-08T02:17:08.040Z,-0.94
2023-12-08T02:19:56.715Z,-0.77
2023-12-08T02:22:45.696Z,-0.71
2023-12-08T02:25:34.576Z,-0.79
2023-12-08T02:28:21.955Z,-0.67
2023-12-08T02:31:13.862Z,-0.89
2023-12-08T02:34:03.026Z,-0.85
2023-12-08T02:36:52.935Z,-1.01
2023-12-08T02:39:41.274Z,-0.94
2023-12-08T02:42:29.879Z,-0.62
2023-12-08T02:45:17.252Z,-0.73
2023-12-08T02:48:05.224Z,-0.81
2023-12-08T02:50:52.591Z,-0.93
2023-12-08T02:53:39.426Z,-0.71
2023-12-08T02:56:26.782Z,-0.76
2023-12-08T02:59:15.500Z,-0.68
2023-12-08T03:02:02.750Z,-0.63
2023-12-08T03:04:49.960Z,-0.82
2023-12-08T03:07:37.268Z,-0.73
2023-12-08T03:10:24.558Z,-0.56
2023-12-08T03:13:12.022Z,-0.79
2023-12-08T03:16:00.652Z,-0.98
2023-12-08T03:18:48.276Z,-1.03
2023-12-08T03:21:35.446Z,-1.06
2023-12-08T03:24:22.224Z,-0.98
2023-12-08T03:27:09.475Z,-0.67
2023-12-08T03:29:56.668Z,-0.63
2023-12-08T03:32:45.629Z,-0.77
2023-12-08T03:35:32.652Z,-0.77
2023-12-08T03:38:19.987Z,-0.94
2023-12-08T03:41:07.481Z,-0.86
2023-12-08T03:43:54.645Z,-0.83
2023-12-08T03:46:45.086Z,-0.88
2023-12-08T03:49:33.930Z,-0.62
2023-12-08T03:52:21.305Z,-0.72
2023-12-08T03:55:09.170Z,-0.68
2023-12-08T03:57:56.280Z,-0.53
2023-12-08T04:00:44.079Z,-0.55
2023-12-08T04:03:31.640Z,-0.83
2023-12-08T04:06:20.416Z,-0.93
2023-12-08T04:09:08.620Z,-0.78
2023-12-08T04:11:56.038Z,-0.57
2023-12-08T04:14:45.151Z,-0.51
2023-12-08T04:17:33.052Z,-0.40
2023-12-08T04:20:20.835Z,-0.73
2023-12-08T04:23:09.464Z,-0.71
2023-12-08T04:25:58.672Z,-0.77
2023-12-08T04:28:46.800Z,-0.75
2023-12-08T04:31:33.580Z,-0.67
2023-12-08T04:34:21.150Z,-0.50
2023-12-08T04:36:50.021Z,-0.68
2023-12-08T04:39:20.035Z,-0.48
2023-12-08T04:41:50.159Z,-0.55
2023-12-08T04:44:19.464Z,-0.61
2023-12-08T04:46:48.048Z,-0.57
2023-12-08T04:49:16.764Z,-0.50
2023-12-08T04:51:45.692Z,0.21
2023-12-08T04:54:14.437Z,-0.19
2023-12-08T04:56:44.427Z,1.38
2023-12-08T04:59:12.988Z,1.78
2023-12-08T05:01:41.538Z,2.30
2023-12-08T05:04:10.068Z,2.40
2023-12-08T05:06:38.873Z,2.24
2023-12-08T05:09:07.450Z,2.30
2023-12-08T05:11:36.255Z,2.28
2023-12-08T05:14:06.276Z,2.23
2023-12-08T05:16:34.831Z,2.26
2023-12-08T05:19:03.502Z,2.27
2023-12-08T05:21:32.834Z,2.21
2023-12-08T05:24:01.373Z,2.23
2023-12-08T05:26:30.389Z,2.14
2023-12-08T05:28:59.125Z,2.01
2023-12-08T05:31:29.530Z,2.24
2023-12-08T05:33:58.402Z,2.27
2023-12-08T05:36:27.340Z,2.20
2023-12-08T05:38:55.935Z,2.09
2023-12-08T05:41:24.469Z,2.24
2023-12-08T05:43:53.214Z,2.28
2023-12-08T05:46:21.747Z,2.28
2023-12-08T05:48:51.801Z,2.13
2023-12-08T05:51:20.628Z,2.19
2023-12-08T05:53:49.238Z,2.28
2023-12-08T05:56:18.067Z,2.31
2023-12-08T05:58:46.590Z,2.18
2023-12-08T06:01:17.794Z,2.22
2023-12-08T06:03:46.424Z,2.23
2023-12-08T06:06:16.638Z,2.27
2023-12-08T06:08:45.237Z,2.31
2023-12-08T06:11:13.803Z,2.32
2023-12-08T06:13:43.079Z,2.28
2023-12-08T06:16:12.558Z,2.31
2023-12-08T06:18:41.290Z,2.32
2023-12-08T06:21:09.981Z,2.46
2023-12-08T06:23:39.944Z,2.21
2023-12-08T06:26:08.834Z,2.28
2023-12-08T06:28:37.340Z,2.22
2023-12-08T06:31:06.651Z,1.47
2023-12-08T06:33:35.327Z,1.91
2023-12-08T06:36:05.831Z,1.71
2023-12-08T06:38:35.035Z,1.96
2023-12-08T06:41:06.390Z,1.96
2023-12-08T06:43:35.020Z,1.92
2023-12-08T06:46:03.823Z,1.97
2023-12-08T06:48:32.479Z,2.05
2023-12-08T06:51:01.153Z,2.01
2023-12-08T06:53:29.748Z,1.45
2023-12-08T06:55:58.331Z,1.52
2023-12-08T06:58:28.214Z,1.44
2023-12-08T07:00:56.870Z,1.43
2023-12-08T07:03:26.244Z,1.46
2023-12-08T07:05:55.070Z,1.42
2023-12-08T07:08:23.625Z,1.48
2023-12-08T07:10:52.207Z,1.33
2023-12-08T07:13:21.855Z,1.28
2023-12-08T07:15:52.047Z,0.98
2023-12-08T07:18:20.994Z,0.90
2023-12-08T07:20:49.677Z,0.91
2023-12-08T07:23:18.291Z,0.89
2023-12-08T07:25:46.954Z,0.86
2023-12-08T07:28:15.495Z,0.74
2023-12-08T07:30:44.216Z,0.89
2023-12-08T07:33:14.336Z,1.06
2023-12-08T07:35:43.142Z,1.07
2023-12-08T07:38:11.718Z,1.18
2023-12-08T07:40:40.273Z,1.22
2023-12-08T07:43:08.801Z,1.30
2023-12-08T07:45:37.365Z,0.95
2023-12-08T07:48:06.929Z,0.93
2023-12-08T07:50:37.361Z,0.82
2023-12-08T07:53:08.984Z,0.73
2023-12-08T07:55:37.578Z,0.87
2023-12-08T07:58:06.177Z,0.81
2023-12-08T08:00:35.077Z,0.81
2023-12-08T08:03:03.942Z,1.10
2023-12-08T08:05:32.716Z,1.20
2023-12-08T08:08:03.950Z,1.15
2023-12-08T08:10:32.962Z,1.26
2023-12-08T08:13:01.494Z,1.01
2023-12-08T08:15:30.282Z,1.24
2023-12-08T08:18:00.288Z,0.97
2023-12-08T08:20:29.479Z,0.98
2023-12-08T08:22:58.958Z,0.91
2023-12-08T08:25:30.489Z,1.12
2023-12-08T08:28:01.427Z,1.11
2023-12-08T08:30:31.017Z,1.08
2023-12-08T08:32:59.647Z,0.96
2023-12-08T08:35:28.330Z,1.02
2023-12-08T08:37:57.086Z,1.11
2023-12-08T08:40:26.177Z,1.12
2023-12-08T08:42:56.170Z,1.13
2023-12-08T08:45:24.709Z,1.28
2023-12-08T08:47:53.706Z,1.53
2023-12-08T08:50:23.579Z,1.63
2023-12-08T08:52:52.318Z,1.36
2023-12-08T08:55:20.958Z,1.39
2023-12-08T08:57:49.564Z,1.53
2023-12-08T09:00:22.083Z,1.32
2023-12-08T09:02:53.260Z,1.30
2023-12-08T09:05:22.594Z,1.30
2023-12-08T09:07:51.534Z,1.46
2023-12-08T09:10:20.334Z,1.60
2023-12-08T09:12:50.079Z,1.61
2023-12-08T09:15:20.259Z,1.70
2023-12-08T09:17:48.917Z,1.92
2023-12-08T09:20:17.689Z,1.99
2023-12-08T09:22:47.292Z,2.15
2023-12-08T09:25:15.916Z,2.02
2023-12-08T09:27:44.696Z,2.03
2023-12-08T09:30:14.468Z,2.30
2023-12-08T09:32:44.556Z,1.88
2023-12-08T09:35:13.223Z,2.12
2023-12-08T09:37:41.910Z,2.19
2023-12-08T09:40:13.783Z,2.16
2023-12-08T09:42:48.767Z,2.22
2023-12-08T09:45:17.528Z,2.10
2023-12-08T09:47:54.729Z,2.10
2023-12-08T09:50:24.192Z,2.32
2023-12-08T09:52:55.480Z,2.35
2023-12-08T09:55:25.179Z,2.34
2023-12-08T09:57:55.767Z,2.42
2023-12-08T10:00:24.826Z,2.58
2023-12-08T10:02:54.856Z,2.61
2023-12-08T10:05:23.845Z,2.62
2023-12-08T10:07:53.542Z,2.58
2023-12-08T10:10:23.212Z,2.33
2023-12-08T10:12:51.703Z,2.43
2023-12-08T10:15:20.324Z,2.57
2023-12-08T10:17:52.336Z,2.62
2023-12-08T10:20:23.997Z,2.11
2023-12-08T10:22:54.670Z,1.80
2023-12-08T10:25:25.443Z,1.71
2023-12-08T10:27:56.118Z,1.52
2023-12-08T10:30:27.746Z,1.74
2023-12-08T10:32:57.029Z,1.60
2023-12-08T10:35:27.160Z,1.80
2023-12-08T10:37:55.757Z,1.76
2023-12-08T10:40:24.422Z,1.57
2023-12-08T10:42:53.034Z,1.67
2023-12-08T10:45:22.494Z,1.45
2023-12-08T10:47:52.255Z,2.01
2023-12-08T10:50:22.934Z,2.07
2023-12-08T10:52:53.660Z,2.14
2023-12-08T10:55:22.618Z,2.19
2023-12-08T10:57:55.878Z,2.19
2023-12-08T11:00:27.808Z,2.16
2023-12-08T11:02:58.815Z,2.16
2023-12-08T11:05:33.838Z,2.19
2023-12-08T11:08:06.182Z,2.21
2023-12-08T11:10:39.249Z,2.44
2023-12-08T11:13:11.565Z,2.41
2023-12-08T11:15:46.004Z,2.49
2023-12-08T11:18:25.502Z,2.27
2023-12-08T11:20:55.014Z,2.06
2023-12-08T11:23:25.527Z,2.06
2023-12-08T11:26:04.519Z,1.76
2023-12-08T11:28:44.725Z,1.93
2023-12-08T11:31:21.470Z,1.85
2023-12-08T11:33:58.320Z,1.92
2023-12-08T11:36:30.451Z,1.84
2023-12-08T11:39:00.469Z,1.91
2023-12-08T11:41:34.288Z,1.89
2023-12-08T11:44:09.190Z,1.89
2023-12-08T11:46:38.009Z,2.20
2023-12-08T11:49:07.777Z,2.22
2023-12-08T11:51:39.390Z,2.37
2023-12-08T11:54:09.322Z,2.10
2023-12-08T11:56:47.472Z,2.51
2023-12-08T11:59:24.469Z,2.46
2023-12-08T12:01:53.218Z,2.45
2023-12-08T12:04:21.829Z,2.38
2023-12-08T12:06:53.761Z,2.09
2023-12-08T12:09:23.991Z,2.10
2023-12-08T12:11:57.375Z,1.88
2023-12-08T12:14:29.549Z,1.84
2023-12-08T12:16:58.724Z,2.10
2023-12-08T12:19:27.629Z,1.81
2023-12-08T12:21:56.255Z,2.01
2023-12-08T12:24:26.200Z,2.30
2023-12-08T12:26:56.023Z,2.32
2023-12-08T12:29:25.372Z,1.86
2023-12-08T12:31:55.813Z,1.96
2023-12-08T12:34:24.389Z,1.88
2023-12-08T12:36:53.010Z,2.13
2023-12-08T12:39:21.611Z,2.11
2023-12-08T12:41:51.713Z,2.06
2023-12-08T12:44:20.259Z,2.28
2023-12-08T12:46:49.228Z,2.29
2023-12-08T12:49:18.247Z,2.14
2023-12-08T12:51:46.907Z,2.16
2023-12-08T12:54:15.991Z,2.34
2023-12-08T12:56:52.504Z,2.30
2023-12-08T12:59:21.043Z,1.84
2023-12-08T13:01:49.895Z,2.09
2023-12-08T13:04:18.496Z,1.80
2023-12-08T13:06:47.343Z,1.91
2023-12-08T13:09:30.391Z,2.04
2023-12-08T13:12:00.742Z,2.06
2023-12-08T13:14:29.299Z,2.17
2023-12-08T13:16:59.709Z,2.05
2023-12-08T13:19:28.383Z,2.19
2023-12-08T13:21:57.186Z,2.22
2023-12-08T13:24:25.771Z,1.99
2023-12-08T13:26:54.483Z,2.20
2023-12-08T13:29:24.490Z,2.04
2023-12-08T13:31:53.333Z,2.31
2023-12-08T13:34:22.123Z,2.44
2023-12-08T13:36:51.298Z,2.15
2023-12-08T13:39:19.949Z,2.14
2023-12-08T13:41:49.404Z,2.42
2023-12-08T13:44:18.219Z,2.56
2023-12-08T13:46:48.213Z,2.40
2023-12-08T13:49:16.968Z,2.17
2023-12-08T13:51:46.595Z,2.13
2023-12-08T13:54:15.285Z,1.85
2023-12-08T13:56:43.883Z,1.79
2023-12-08T13:59:12.837Z,1.98
2023-12-08T14:01:41.816Z,1.81
2023-12-08T14:04:11.951Z,1.70
2023-12-08T14:06:40.700Z,1.80
2023-12-08T14:09:11.638Z,1.67
2023-12-08T14:11:40.349Z,1.77
2023-12-08T14:14:08.923Z,1.72
2023-12-08T14:16:37.564Z,1.52
2023-12-08T14:19:05.357Z,1.60
2023-12-08T14:21:36.498Z,1.65
2023-12-08T14:24:05.552Z,1.64
2023-12-08T14:26:34.375Z,1.68
2023-12-08T14:29:02.932Z,1.60
2023-12-08T14:31:31.836Z,1.52
2023-12-08T14:34:01.166Z,1.65
2023-12-08T14:36:30.324Z,1.61
2023-12-08T14:39:00.406Z,1.76
2023-12-08T14:41:30.090Z,1.70
2023-12-08T14:44:00.431Z,1.78
2023-12-08T14:46:28.990Z,1.84
2023-12-08T14:48:57.844Z,1.53
2023-12-08T14:51:27.021Z,1.64
2023-12-08T14:53:57.610Z,1.46
2023-12-08T14:56:28.836Z,1.40
2023-12-08T14:58:57.679Z,1.33
2023-12-08T15:01:26.951Z,1.39
2023-12-08T15:03:55.630Z,1.32
2023-12-08T15:06:24.251Z,1.31
2023-12-08T15:08:53.416Z,1.31
2023-12-08T15:11:23.618Z,1.52
2023-12-08T15:13:53.972Z,1.50
2023-12-08T15:16:22.804Z,1.54
2023-12-08T15:18:51.472Z,1.64
2023-12-08T15:21:23.134Z,1.70
2023-12-08T15:23:58.078Z,1.45
2023-12-08T15:26:27.931Z,1.48
2023-12-08T15:28:57.864Z,1.42
2023-12-08T15:31:26.475Z,1.55
2023-12-08T15:33:56.759Z,1.48
2023-12-08T15:36:25.671Z,1.59
2023-12-08T15:38:54.373Z,1.55
2023-12-08T15:41:23.036Z,1.36
2023-12-08T15:43:51.789Z,1.64
2023-12-08T15:46:21.757Z,1.38
2023-12-08T15:48:50.746Z,1.45
2023-12-08T15:51:19.513Z,1.56
2023-12-08T15:53:48.172Z,1.59
2023-12-08T15:56:16.938Z,1.41
2023-12-08T15:58:45.482Z,1.39
2023-12-08T16:01:19.585Z,1.52
2023-12-08T16:03:49.632Z,1.51
2023-12-08T16:06:20.052Z,1.55
2023-12-08T16:08:48.685Z,1.43
2023-12-08T16:11:26.416Z,1.44
2023-12-08T16:13:55.447Z,1.30
2023-12-08T16:16:24.589Z,1.43
2023-12-08T16:18:54.690Z,1.27
2023-12-08T16:21:25.274Z,1.37
2023-12-08T16:23:54.314Z,1.47
2023-12-08T16:26:23.148Z,1.38
2023-12-08T16:28:52.028Z,1.19
2023-12-08T16:31:20.741Z,1.24
2023-12-08T16:33:49.365Z,1.22
2023-12-08T16:36:19.918Z,1.25
2023-12-08T16:38:48.985Z,1.15
2023-12-08T16:41:17.626Z,1.15
2023-12-08T16:43:46.355Z,1.18
2023-12-08T16:46:15.028Z,1.25
2023-12-08T16:48:44.201Z,1.39
2023-12-08T16:51:12.916Z,1.47
2023-12-08T16:53:42.923Z,1.46
2023-12-08T16:56:11.681Z,1.33
2023-12-08T16:58:40.182Z,1.46
2023-12-08T17:01:08.809Z,1.46
2023-12-08T17:03:37.439Z,1.34
2023-12-08T17:06:06.866Z,1.27
2023-12-08T17:08:35.612Z,1.05
2023-12-08T17:11:06.288Z,1.26
2023-12-08T17:13:34.820Z,1.46
2023-12-08T17:16:03.371Z,1.26
2023-12-08T17:18:32.103Z,1.39
2023-12-08T17:21:01.491Z,1.48
2023-12-08T17:23:30.168Z,1.21
2023-12-08T17:25:59.736Z,1.31
2023-12-08T17:28:29.655Z,1.49
2023-12-08T17:30:59.454Z,1.16
2023-12-08T17:33:28.139Z,1.31
2023-12-08T17:35:57.013Z,1.32
2023-12-08T17:38:25.814Z,1.16
2023-12-08T17:40:54.570Z,1.31
2023-12-08T17:43:24.485Z,1.33
2023-12-08T17:45:54.413Z,1.40
2023-12-08T17:48:23.124Z,1.42
2023-12-08T17:50:52.146Z,1.24
2023-12-08T17:53:21.432Z,1.09
2023-12-08T17:55:49.942Z,1.33
2023-12-08T17:58:18.788Z,1.24
2023-12-08T18:00:47.374Z,1.17
2023-12-08T18:03:19.904Z,1.31
2023-12-08T18:05:48.614Z,1.02
2023-12-08T18:08:17.375Z,1.11
2023-12-08T18:10:45.886Z,1.05
2023-12-08T18:13:14.435Z,1.19
2023-12-08T18:15:43.207Z,1.30
2023-12-08T18:18:12.168Z,1.26
2023-12-08T18:20:42.721Z,1.24
2023-12-08T18:23:13.204Z,1.33
2023-12-08T18:25:41.934Z,1.30
2023-12-08T18:28:29.485Z,1.41
2023-12-08T18:30:59.539Z,1.25
2023-12-08T18:33:28.145Z,1.39
2023-12-08T18:35:58.160Z,1.39
2023-12-08T18:38:27.181Z,1.31
2023-12-08T18:40:55.941Z,1.30
2023-12-08T18:43:24.516Z,1.07
2023-12-08T18:45:53.281Z,1.07
2023-12-08T18:48:21.920Z,1.13
2023-12-08T18:50:50.623Z,1.14
2023-12-08T18:53:20.549Z,1.21
2023-12-08T18:55:49.141Z,1.05
2023-12-08T18:58:18.132Z,1.19
2023-12-08T19:00:46.764Z,1.28
2023-12-08T19:03:15.618Z,1.29
2023-12-08T19:05:44.236Z,1.27
2023-12-08T19:08:12.851Z,1.27
2023-12-08T19:10:42.968Z,1.46
2023-12-08T19:13:11.690Z,1.42
2023-12-08T19:15:40.346Z,1.16
2023-12-08T19:18:09.589Z,1.28
2023-12-08T19:20:42.151Z,1.26
2023-12-08T19:23:11.261Z,1.18
2023-12-08T19:25:41.052Z,1.22
2023-12-08T19:28:11.309Z,1.27
2023-12-08T19:30:40.074Z,1.16
2023-12-08T19:33:08.864Z,1.25
2023-12-08T19:35:37.863Z,1.13
2023-12-08T19:38:06.438Z,1.19
2023-12-08T19:40:35.217Z,1.12
2023-12-08T19:43:04.022Z,1.30
2023-12-08T19:45:33.956Z,1.39
2023-12-08T19:48:02.916Z,1.36
2023-12-08T19:50:32.467Z,1.23
2023-12-08T19:53:01.278Z,1.27
2023-12-08T19:55:29.861Z,1.37
2023-12-08T19:57:58.426Z,1.33
2023-12-08T20:00:27.074Z,1.16
2023-12-08T20:02:57.084Z,1.36
2023-12-08T20:05:25.777Z,1.40
2023-12-08T20:07:54.323Z,1.33
2023-12-08T20:10:24.010Z,1.25
2023-12-08T20:12:52.557Z,1.36
2023-12-08T20:15:27.685Z,1.32
2023-12-08T20:17:58.830Z,1.23
2023-12-08T20:20:27.711Z,1.04
2023-12-08T20:22:56.256Z,1.26
2023-12-08T20:25:24.813Z,1.09
2023-12-08T20:27:53.644Z,1.04
2023-12-08T20:30:22.244Z,1.28
2023-12-08T20:32:51.309Z,1.01
2023-12-08T20:35:21.427Z,1.09
2023-12-08T20:37:49.977Z,1.28
2023-12-08T20:40:18.920Z,1.37
2023-12-08T20:42:47.646Z,1.32
2023-12-08T20:45:16.804Z,1.41
2023-12-08T20:47:45.755Z,1.33
2023-12-08T20:50:16.455Z,1.21
2023-12-08T20:52:46.401Z,1.19
2023-12-08T20:55:15.024Z,1.10
2023-12-08T20:57:43.642Z,1.03
2023-12-08T21:00:12.820Z,1.15
2023-12-08T21:02:41.374Z,1.19
2023-12-08T21:05:10.433Z,0.93
2023-12-08T21:07:40.419Z,1.04
2023-12-08T21:10:11.139Z,0.93
2023-12-08T21:12:39.907Z,1.08
2023-12-08T21:15:10.678Z,1.09
2023-12-08T21:17:40.245Z,1.13
2023-12-08T21:20:10.975Z,1.00
2023-12-08T21:22:41.209Z,1.00
2023-12-08T21:25:13.744Z,1.13
2023-12-08T21:27:42.905Z,1.14
2023-12-08T21:30:11.997Z,1.27
2023-12-08T21:32:40.591Z,1.07
2023-12-08T21:35:10.492Z,1.16
2023-12-08T21:37:39.747Z,1.21
2023-12-08T21:40:10.844Z,1.07
2023-12-08T21:42:44.766Z,1.22
2023-12-08T21:45:13.932Z,1.29
2023-12-08T21:47:42.709Z,1.26
2023-12-08T21:50:11.937Z,1.21
2023-12-08T21:52:40.443Z,1.24
2023-12-08T21:55:10.940Z,1.08
2023-12-08T21:57:39.565Z,1.14
2023-12-08T22:00:11.048Z,1.19
2023-12-08T22:02:39.948Z,1.20
2023-12-08T22:05:09.564Z,1.14
2023-12-08T22:07:38.459Z,1.01
2023-12-08T22:10:09.564Z,0.98
2023-12-08T22:12:39.629Z,1.15
2023-12-08T22:15:09.660Z,1.11
2023-12-08T22:17:38.226Z,1.27
2023-12-08T22:20:09.040Z,1.04
2023-12-08T22:22:37.627Z,1.05
2023-12-08T22:25:07.549Z,1.11
2023-12-08T22:27:36.152Z,1.06
2023-12-08T22:30:08.491Z,0.86
2023-12-08T22:32:37.591Z,1.06
2023-12-08T22:35:07.669Z,1.09
2023-12-08T22:37:36.264Z,1.10
2023-12-08T22:40:05.426Z,1.08
2023-12-08T22:42:33.968Z,1.11
2023-12-08T22:45:02.612Z,0.71
2023-12-08T22:47:32.856Z,0.84
2023-12-08T22:50:03.106Z,0.89
2023-12-08T22:52:32.548Z,0.87
2023-12-08T22:55:01.377Z,0.94
2023-12-08T22:57:29.970Z,0.94
2023-12-08T22:59:58.547Z,0.90
2023-12-08T23:02:27.331Z,0.95
2023-12-08T23:04:57.510Z,0.91
2023-12-08T23:07:26.092Z,1.03
2023-12-08T23:09:54.978Z,1.00
2023-12-08T23:12:23.585Z,0.98
2023-12-08T23:14:52.272Z,0.91
2023-12-08T23:17:21.456Z,1.05
2023-12-08T23:19:49.979Z,1.10
2023-12-08T23:22:19.890Z,1.01
2023-12-08T23:24:48.664Z,1.04
2023-12-08T23:27:17.356Z,1.03
2023-12-08T23:29:46.192Z,1.02
2023-12-08T23:32:15.032Z,1.03
2023-12-08T23:34:44.000Z,1.00
2023-12-08T23:37:12.690Z,0.99
2023-12-08T23:39:42.666Z,1.15
2023-12-08T23:42:11.311Z,1.17
2023-12-08T23:44:40.029Z,1.22
2023-12-08T23:47:09.450Z,0.96
2023-12-08T23:49:38.386Z,0.98
2023-12-08T23:52:08.538Z,0.81
2023-12-08T23:54:37.418Z,0.83
2023-12-08T23:57:07.743Z,1.09
2023-12-08T23:59:36.315Z,0.95
